La Roche-sur-Yon Airport

Airport
ICAO code: 
LFRI
IATA Code: 
EDM
Summary
ICAO Region: 
EUR
Territory: 
Location: 
, Pays de la Loire
Serving: 
La Roche-sur-yon
Elevation: 
299 ft
Coordinates: 
Aerial View: 
46° 42' 6.998" N, 1° 22' 43.05" W
Metar
Observation
LFRI 240600Z AUTO 07002KT 2000 BR OVC002 M00/M01 Q1028 BECMG SCT003
Station
La Roche-Sur-Yon
Date/Time
2022-01-24 06:00:00
Wind direction
70°
Wind speed
02 kts
Lowest cloud amount
overcast
Temperature
-0°C
Dew point
-1°C
Humidity
92%
QNH
1028 hPa
Weather condition
n/a

Runways

Designator Length Width Surface Rops
10/28 1550 30 ASP No/No
Airport map: 
Aerial View: 

SKYbrary Partners:

Safety knowledge contributed by: